Time,TemperatureF,DewpointF,PressureIn,WindDirection,WindDirectionDegrees,WindSpeedMPH,WindSpeedGustMPH,Humidity,HourlyPrecipIn,Conditions,Clouds,dailyrainin,SolarRadiationWatts/m^2,SoftwareType,DateUTC
2013-03-14 00:02:00,34.0,23.0,-100.00,North,10,0.0,4.0,64,0.00,,,0.00,0.000000,,2013-03-14 07:02:00,
2013-03-14 00:11:00,34.0,23.0,-100.00,North,10,0.0,4.0,64,0.00,,,0.00,0.000000,,2013-03-14 07:11:00,
2013-03-14 00:22:00,34.0,23.0,-100.00,North,10,0.0,4.0,64,0.00,,,0.00,0.000000,,2013-03-14 07:22:00,
2013-03-14 00:32:00,34.0,23.0,-100.00,North,10,0.0,4.0,64,0.00,,,0.00,0.000000,,2013-03-14 07:32:00,
2013-03-14 01:02:00,33.0,24.0,-100.00,North,10,0.0,4.0,69,0.00,,,0.00,0.000000,,2013-03-14 08:02:00,
2013-03-14 01:12:00,33.0,24.0,-100.00,North,10,0.0,4.0,69,0.00,,,0.00,0.000000,,2013-03-14 08:12:00,
2013-03-14 01:21:00,33.0,24.0,-100.00,North,10,0.0,4.0,69,0.00,,,0.00,0.000000,,2013-03-14 08:21:00,
2013-03-14 01:31:00,33.0,24.0,-100.00,North,10,0.0,4.0,69,0.00,,,0.00,0.000000,,2013-03-14 08:31:00,
2013-03-14 01:52:00,33.0,24.0,-100.00,NNE,13,1.0,4.0,68,0.00,,,0.00,0.000000,,2013-03-14 08:52:00,
2013-03-14 02:01:00,33.0,24.0,-100.00,NNE,13,1.0,4.0,68,0.00,,,0.00,0.000000,,2013-03-14 09:01:00,
2013-03-14 02:12:00,33.0,24.0,-100.00,NNE,13,1.0,4.0,68,0.00,,,0.00,0.000000,,2013-03-14 09:12:00,
2013-03-14 02:22:00,33.0,24.0,-100.00,NNE,13,1.0,4.0,68,0.00,,,0.00,0.000000,,2013-03-14 09:22:00,
2013-03-14 02:31:00,33.0,24.0,-100.00,NNE,13,1.0,4.0,68,0.00,,,0.00,0.000000,,2013-03-14 09:31:00,
2013-03-14 03:02:00,33.0,25.0,-100.00,North,8,3.0,5.0,71,0.00,,,0.00,0.000000,,2013-03-14 10:02:00,
2013-03-14 03:12:00,33.0,25.0,-100.00,North,8,3.0,5.0,71,0.00,,,0.00,0.000000,,2013-03-14 10:12:00,
2013-03-14 03:22:00,33.0,25.0,-100.00,North,8,3.0,5.0,71,0.00,,,0.00,0.000000,,2013-03-14 10:22:00,
2013-03-14 03:31:00,33.0,25.0,-100.00,North,8,3.0,5.0,71,0.00,,,0.00,0.000000,,2013-03-14 10:31:00,
2013-03-14 04:02:00,32.0,25.0,-100.00,North,8,0.0,4.0,75,0.00,,,0.00,0.000000,,2013-03-14 11:02:00,
2013-03-14 04:12:00,32.0,25.0,-100.00,North,8,0.0,4.0,75,0.00,,,0.00,0.000000,,2013-03-14 11:12:00,
2013-03-14 04:22:00,32.0,25.0,-100.00,North,8,0.0,4.0,75,0.00,,,0.00,0.000000,,2013-03-14 11:22:00,
2013-03-14 04:32:00,32.0,25.0,-100.00,North,8,0.0,4.0,75,0.00,,,0.00,0.000000,,2013-03-14 11:32:00,
2013-03-14 05:02:00,32.0,24.0,-100.00,NE,36,0.0,4.0,72,0.00,,,0.00,0.000000,,2013-03-14 12:02:00,
2013-03-14 05:12:00,32.0,24.0,-100.00,NE,36,0.0,4.0,72,0.00,,,0.00,0.000000,,2013-03-14 12:12:00,
2013-03-14 05:22:00,32.0,24.0,-100.00,NE,36,0.0,4.0,72,0.00,,,0.00,0.000000,,2013-03-14 12:22:00,
2013-03-14 05:32:00,32.0,24.0,-100.00,NE,36,0.0,4.0,72,0.00,,,0.00,0.000000,,2013-03-14 12:32:00,
2013-03-14 06:02:00,31.0,25.0,-100.00,NNE,12,0.0,4.0,77,0.00,,,0.00,0.000000,,2013-03-14 13:02:00,
2013-03-14 06:12:00,31.0,25.0,-100.00,NNE,12,0.0,4.0,77,0.00,,,0.00,0.000000,,2013-03-14 13:12:00,
2013-03-14 06:22:00,31.0,25.0,-100.00,NNE,12,0.0,4.0,77,0.00,,,0.00,0.000000,,2013-03-14 13:22:00,
2013-03-14 06:32:00,31.0,25.0,-100.00,NNE,12,0.0,4.0,77,0.00,,,0.00,0.000000,,2013-03-14 13:32:00,
2013-03-14 07:02:00,31.0,24.0,-100.00,NNE,13,0.0,4.0,75,0.00,,,0.00,0.000000,,2013-03-14 14:02:00,
2013-03-14 07:12:00,31.0,24.0,-100.00,NNE,13,0.0,4.0,75,0.00,,,0.00,0.000000,,2013-03-14 14:12:00,
2013-03-14 07:22:00,31.0,24.0,-100.00,NNE,13,0.0,4.0,75,0.00,,,0.00,0.000000,,2013-03-14 14:22:00,
2013-03-14 07:32:00,31.0,24.0,-100.00,NNE,13,0.0,4.0,75,0.00,,,0.00,0.000000,,2013-03-14 14:32:00,
2013-03-14 08:02:00,31.0,25.0,-100.00,North,10,0.0,4.0,79,0.00,,,0.00,5.000000,,2013-03-14 15:02:00,
2013-03-14 08:12:00,31.0,25.0,-100.00,North,10,0.0,4.0,79,0.00,,,0.00,5.000000,,2013-03-14 15:12:00,
2013-03-14 08:22:00,31.0,25.0,-100.00,North,10,0.0,4.0,79,0.00,,,0.00,5.000000,,2013-03-14 15:22:00,
2013-03-14 08:32:00,31.0,25.0,-100.00,North,10,0.0,4.0,79,0.00,,,0.00,5.000000,,2013-03-14 15:32:00,
2013-03-14 08:52:00,37.0,26.0,-100.00,East,81,0.0,3.0,64,0.00,,,0.00,26.000000,,2013-03-14 15:52:00,
2013-03-14 09:02:00,37.0,26.0,-100.00,East,81,0.0,3.0,64,0.00,,,0.00,26.000000,,2013-03-14 16:02:00,
2013-03-14 09:12:00,37.0,26.0,-100.00,East,81,0.0,3.0,64,0.00,,,0.00,26.000000,,2013-03-14 16:12:00,
2013-03-14 09:22:00,37.0,26.0,-100.00,East,81,0.0,3.0,64,0.00,,,0.00,26.000000,,2013-03-14 16:22:00,
2013-03-14 09:32:00,37.0,26.0,-100.00,East,81,0.0,3.0,64,0.00,,,0.00,26.000000,,2013-03-14 16:32:00,
2013-03-14 09:52:00,54.0,33.0,-100.00,SSE,168,0.0,0.0,44,-99.99,,,0.00,336.000000,,2013-03-14 16:52:00,
2013-03-14 10:02:00,54.0,33.0,-100.00,SSE,168,0.0,0.0,44,-99.99,,,0.00,336.000000,,2013-03-14 17:02:00,
2013-03-14 10:12:00,54.0,33.0,-100.00,SSE,168,0.0,0.0,44,-99.99,,,0.00,336.000000,,2013-03-14 17:12:00,
2013-03-14 10:23:00,54.0,33.0,-100.00,SSE,168,0.0,0.0,44,-99.99,,,0.00,336.000000,,2013-03-14 17:23:00,
2013-03-14 10:31:00,54.0,33.0,-100.00,SSE,168,0.0,0.0,44,-99.99,,,0.00,336.000000,,2013-03-14 17:31:00,
2013-03-14 10:52:00,68.0,23.0,-100.00,WSW,254,1.0,7.0,18,-99.99,,,0.00,729.000000,,2013-03-14 17:52:00,
2013-03-14 11:02:00,68.0,23.0,-100.00,WSW,254,1.0,7.0,18,-99.99,,,0.00,729.000000,,2013-03-14 18:02:00,
2013-03-14 11:12:00,68.0,23.0,-100.00,WSW,254,1.0,7.0,18,-99.99,,,0.00,729.000000,,2013-03-14 18:12:00,
2013-03-14 11:22:00,68.0,23.0,-100.00,WSW,254,1.0,7.0,18,-99.99,,,0.00,729.000000,,2013-03-14 18:22:00,
2013-03-14 11:32:00,68.0,23.0,-100.00,WSW,254,1.0,7.0,18,-99.99,,,0.00,729.000000,,2013-03-14 18:32:00,
2013-03-14 11:52:00,71.0,18.0,-100.00,SSW,198,2.0,10.0,13,0.00,,,0.00,912.000000,,2013-03-14 18:52:00,
2013-03-14 12:02:00,71.0,18.0,-100.00,SSW,198,2.0,10.0,13,0.00,,,0.00,912.000000,,2013-03-14 19:02:00,
2013-03-14 12:12:00,71.0,18.0,-100.00,SSW,198,2.0,10.0,13,0.00,,,0.00,912.000000,,2013-03-14 19:12:00,
2013-03-14 12:22:00,71.0,18.0,-100.00,SSW,198,2.0,10.0,13,0.00,,,0.00,912.000000,,2013-03-14 19:22:00,
2013-03-14 12:32:00,71.0,18.0,-100.00,SSW,198,2.0,10.0,13,0.00,,,0.00,912.000000,,2013-03-14 19:32:00,
2013-03-14 14:02:00,73.0,17.0,-100.00,West,276,4.0,11.0,12,-99.99,,,0.00,1059.000000,,2013-03-14 21:02:00,
2013-03-14 14:12:00,73.0,17.0,-100.00,West,276,4.0,11.0,12,-99.99,,,0.00,1059.000000,,2013-03-14 21:12:00,
2013-03-14 14:22:00,73.0,17.0,-100.00,West,276,4.0,11.0,12,-99.99,,,0.00,1059.000000,,2013-03-14 21:22:00,
2013-03-14 14:32:00,73.0,17.0,-100.00,West,276,4.0,11.0,12,-99.99,,,0.00,1059.000000,,2013-03-14 21:32:00,
2013-03-14 15:03:00,71.0,16.0,-100.00,SSW,193,6.0,10.0,12,0.00,,,0.00,1014.000000,,2013-03-14 22:03:00,
2013-03-14 15:12:00,71.0,16.0,-100.00,SSW,193,6.0,10.0,12,0.00,,,0.00,1014.000000,,2013-03-14 22:12:00,
2013-03-14 15:23:00,71.0,16.0,-100.00,SSW,193,6.0,10.0,12,0.00,,,0.00,1014.000000,,2013-03-14 22:23:00,
2013-03-14 15:32:00,71.0,16.0,-100.00,SSW,193,6.0,10.0,12,0.00,,,0.00,1014.000000,,2013-03-14 22:32:00,
2013-03-14 16:02:00,72.0,22.0,-100.00,SSW,205,4.0,10.0,15,0.00,,,0.00,914.000000,,2013-03-14 23:02:00,
2013-03-14 16:12:00,72.0,22.0,-100.00,SSW,205,4.0,10.0,15,0.00,,,0.00,914.000000,,2013-03-14 23:12:00,
2013-03-14 16:22:00,72.0,22.0,-100.00,SSW,205,4.0,10.0,15,0.00,,,0.00,914.000000,,2013-03-14 23:22:00,
2013-03-14 16:32:00,72.0,22.0,-100.00,SSW,205,4.0,10.0,15,0.00,,,0.00,914.000000,,2013-03-14 23:32:00,
2013-03-14 17:02:00,71.0,19.0,-100.00,NNW,334,1.0,11.0,14,0.00,,,0.00,641.000000,,2013-03-15 00:02:00,
2013-03-14 17:12:00,71.0,19.0,-100.00,NNW,334,1.0,11.0,14,0.00,,,0.00,641.000000,,2013-03-15 00:12:00,
2013-03-14 17:22:00,71.0,19.0,-100.00,NNW,334,1.0,11.0,14,0.00,,,0.00,641.000000,,2013-03-15 00:22:00,
2013-03-14 17:32:00,71.0,19.0,-100.00,NNW,334,1.0,11.0,14,0.00,,,0.00,641.000000,,2013-03-15 00:32:00,
2013-03-14 18:02:00,65.0,18.0,-100.00,North,0,3.0,10.0,16,0.00,,,0.00,222.000000,,2013-03-15 01:02:00,
2013-03-14 18:11:00,65.0,18.0,-100.00,North,0,3.0,10.0,16,0.00,,,0.00,222.000000,,2013-03-15 01:11:00,
2013-03-14 18:22:00,65.0,18.0,-100.00,North,0,3.0,10.0,16,0.00,,,0.00,222.000000,,2013-03-15 01:22:00,
2013-03-14 18:32:00,65.0,18.0,-100.00,North,0,3.0,10.0,16,0.00,,,0.00,222.000000,,2013-03-15 01:32:00,
2013-03-14 19:02:00,59.0,19.0,-100.00,North,0,0.0,9.0,21,0.00,,,0.00,39.000000,,2013-03-15 02:02:00,
2013-03-14 19:12:00,59.0,19.0,-100.00,North,0,0.0,9.0,21,0.00,,,0.00,39.000000,,2013-03-15 02:12:00,
2013-03-14 19:22:00,59.0,19.0,-100.00,North,0,0.0,9.0,21,0.00,,,0.00,39.000000,,2013-03-15 02:22:00,
2013-03-14 19:32:00,59.0,19.0,-100.00,North,0,0.0,9.0,21,0.00,,,0.00,39.000000,,2013-03-15 02:32:00,
2013-03-14 20:02:00,47.0,25.0,-100.00,North,10,2.0,4.0,42,0.00,,,0.00,3.000000,,2013-03-15 03:02:00,
2013-03-14 20:32:00,47.0,25.0,-100.00,North,10,2.0,4.0,42,0.00,,,0.00,3.000000,,2013-03-15 03:32:00,
2013-03-14 21:03:00,43.0,27.0,-100.00,North,10,0.0,4.0,53,0.00,,,0.00,0.000000,,2013-03-15 04:03:00,
2013-03-14 21:12:00,43.0,27.0,-100.00,North,10,0.0,4.0,53,0.00,,,0.00,0.000000,,2013-03-15 04:12:00,
2013-03-14 21:22:00,43.0,27.0,-100.00,North,10,0.0,4.0,53,0.00,,,0.00,0.000000,,2013-03-15 04:22:00,
2013-03-14 21:32:00,43.0,27.0,-100.00,North,10,0.0,4.0,53,0.00,,,0.00,0.000000,,2013-03-15 04:32:00,
2013-03-14 22:02:00,40.0,27.0,-100.00,North,8,3.0,4.0,60,0.00,,,0.00,0.000000,,2013-03-15 05:02:00,
2013-03-14 22:12:00,40.0,27.0,-100.00,North,8,3.0,4.0,60,0.00,,,0.00,0.000000,,2013-03-15 05:12:00,
2013-03-14 22:22:00,40.0,27.0,-100.00,North,8,3.0,4.0,60,0.00,,,0.00,0.000000,,2013-03-15 05:22:00,
2013-03-14 22:32:00,40.0,27.0,-100.00,North,8,3.0,4.0,60,0.00,,,0.00,0.000000,,2013-03-15 05:32:00,
2013-03-14 22:52:00,37.0,27.0,-100.00,North,11,0.0,4.0,66,0.00,,,0.00,0.000000,,2013-03-15 05:52:00,
2013-03-14 23:02:00,37.0,27.0,-100.00,North,11,0.0,4.0,66,0.00,,,0.00,0.000000,,2013-03-15 06:02:00,
2013-03-14 23:12:00,37.0,27.0,-100.00,North,11,0.0,4.0,66,0.00,,,0.00,0.000000,,2013-03-15 06:12:00,
2013-03-14 23:22:00,37.0,27.0,-100.00,North,11,0.0,4.0,66,0.00,,,0.00,0.000000,,2013-03-15 06:22:00,
2013-03-14 23:32:00,37.0,27.0,-100.00,North,11,0.0,4.0,66,0.00,,,0.00,0.000000,,2013-03-15 06:32:00,